Andrews, South Carolina
Current Conditions -  °F | °C
As of 9:15 AM on Wednesday 28 Jan 2015 (Local Time) from KGGE Reporting Station
Clear Clear  
Wind Chill: 23°   Ceiling: Unl
Heat Index: 32°   Visibility: 10mi
Dew Point: 21°   Wind: 12mph
Humidity: 64%   Direction: 350°N
Pressure: 30.24"   Gusts: NA
Location:  33.45°N, 79.56°W
Report Text: KGGE 281415Z AUTO 35010KT 10SM CLR 00/M06 A3024 RMK AO2
Loading
Personal Weather Stations






























Interactive Weather Map New forecast layout! Learn more

10-Day Weather Forecast

Advertisements
Track Severe Weather on mobile